Time;durP1;ratioP1;P1;durP2;ratioP2;P2;SDS_P1;SDS_P2;PMS_P1;PMS_P2;Temp;Humidity;BMP_temperature;BMP_pressure;BME280_temperature;BME280_humidity;BME280_pressure;Samples;Min_cycle;Max_cycle;Signal;HPM_P1;HPM_P2
2021/05/27 00:02:22;;;;;;;0.90;0.80;;;9.20;82.10;;;;;;5030372;28;20474;-71
2021/05/27 00:04:48;;;;;;;0.98;0.98;;;9.20;82.20;;;;;;5011569;28;20093;-71
2021/05/27 00:07:13;;;;;;;1.65;1.20;;;9.20;82.20;;;;;;5030289;28;20033;-71
2021/05/27 00:09:39;;;;;;;2.20;1.20;;;9.20;82.30;;;;;;5030415;28;20489;-71
2021/05/27 00:12:05;;;;;;;1.42;1.10;;;9.20;82.30;;;;;;5012675;28;20065;-71
2021/05/27 00:14:30;;;;;;;1.30;1.20;;;9.20;82.30;;;;;;5027015;28;20454;-71
2021/05/27 00:16:56;;;;;;;1.40;1.20;;;9.20;82.30;;;;;;5022331;28;20485;-71
2021/05/27 00:19:22;;;;;;;2.05;1.05;;;9.20;82.50;;;;;;5020147;28;20038;-71
2021/05/27 00:21:47;;;;;;;2.08;1.38;;;9.20;82.60;;;;;;4998284;28;20470;-71
2021/05/27 00:24:13;;;;;;;2.55;1.40;;;9.30;82.70;;;;;;5025654;28;20069;-71
2021/05/27 00:26:40;;;;;;;1.30;1.20;;;9.30;82.70;;;;;;5011358;28;20032;-71
2021/05/27 00:29:07;;;;;;;1.52;1.30;;;9.30;82.80;;;;;;5030369;28;20121;-71
2021/05/27 00:31:33;;;;;;;2.97;1.40;;;9.30;82.70;;;;;;5030086;28;20043;-70
2021/05/27 00:33:59;;;;;;;2.17;1.30;;;9.30;82.80;;;;;;5028905;28;20219;-71
2021/05/27 00:36:24;;;;;;;2.30;1.45;;;9.30;82.90;;;;;;5029463;28;20101;-71
2021/05/27 00:38:50;;;;;;;3.42;1.73;;;9.30;82.90;;;;;;5011355;28;20040;-71
2021/05/27 00:41:15;;;;;;;3.00;1.67;;;9.30;82.90;;;;;;5029303;28;20056;-71
2021/05/27 00:43:41;;;;;;;1.60;1.50;;;9.30;82.90;;;;;;5012800;28;20481;-71
2021/05/27 00:46:06;;;;;;;2.90;1.48;;;9.30;82.90;;;;;;5028422;28;20028;-71
2021/05/27 00:51:16;;;;;;;1.42;1.33;;;9.40;83.10;;;;;;5023795;28;20040;-71
2021/05/27 00:53:42;;;;;;;2.83;1.70;;;9.40;83.00;;;;;;5011899;28;20021;-71
2021/05/27 00:56:09;;;;;;;1.70;1.60;;;9.40;83.10;;;;;;5028493;28;20017;-71
2021/05/27 00:58:36;;;;;;;2.10;1.92;;;9.40;83.10;;;;;;5022187;28;20018;-71
2021/05/27 01:01:02;;;;;;;1.63;1.52;;;9.40;83.10;;;;;;5028552;28;20429;-71
2021/05/27 01:03:28;;;;;;;2.35;1.67;;;9.40;83.20;;;;;;5011891;28;20500;-71
2021/05/27 01:05:53;;;;;;;2.33;1.75;;;9.50;83.30;;;;;;5027750;28;20021;-72
2021/05/27 01:08:19;;;;;;;3.15;1.63;;;9.40;83.20;;;;;;5028874;28;20516;-71
2021/05/27 01:10:45;;;;;;;2.42;1.80;;;9.50;83.30;;;;;;5011392;28;20507;-71
2021/05/27 01:13:10;;;;;;;1.80;1.70;;;9.50;83.30;;;;;;5011603;28;20429;-73
2021/05/27 01:15:38;;;;;;;1.83;1.63;;;9.40;83.20;;;;;;5021500;28;20034;-72
2021/05/27 01:18:09;;;;;;;2.28;1.80;;;9.50;83.20;;;;;;5011113;28;20038;-71
2021/05/27 01:20:36;;;;;;;2.13;1.83;;;9.50;83.50;;;;;;5010469;28;20060;-71
2021/05/27 01:23:02;;;;;;;2.85;1.83;;;9.50;83.40;;;;;;5029626;28;20037;-71
2021/05/27 01:25:29;;;;;;;3.55;1.90;;;9.50;83.40;;;;;;5028209;28;20148;-71
2021/05/27 01:27:55;;;;;;;2.05;1.80;;;9.50;83.60;;;;;;5011313;28;20033;-72
2021/05/27 01:30:21;;;;;;;1.70;1.60;;;9.50;83.50;;;;;;5028384;28;20030;-71
2021/05/27 01:32:47;;;;;;;2.03;1.83;;;9.60;83.60;;;;;;5029551;28;20036;-71
2021/05/27 01:35:17;;;;;;;2.17;1.70;;;9.60;83.50;;;;;;5028110;28;20500;-71
2021/05/27 01:37:44;;;;;;;1.88;1.77;;;9.60;84.00;;;;;;5028671;28;20093;-71
2021/05/27 01:40:10;;;;;;;1.80;1.70;;;9.60;83.30;;;;;;5029543;28;20025;-71
2021/05/27 01:42:36;;;;;;;2.63;1.90;;;9.60;83.40;;;;;;5028561;28;20041;-72
2021/05/27 01:45:04;;;;;;;1.75;1.65;;;9.60;83.50;;;;;;5018362;28;20040;-71
2021/05/27 01:47:29;;;;;;;2.95;2.17;;;9.60;83.50;;;;;;5028194;28;20459;-72
2021/05/27 01:49:55;;;;;;;3.35;2.22;;;9.60;83.40;;;;;;5021297;28;20025;-71
2021/05/27 01:52:21;;;;;;;2.03;1.83;;;9.60;83.40;;;;;;5032346;28;20033;-71
2021/05/27 01:54:46;;;;;;;2.58;2.17;;;9.60;83.30;;;;;;5013909;28;20389;-71
2021/05/27 01:57:12;;;;;;;4.75;1.80;;;9.60;83.20;;;;;;5015115;28;20057;-71
2021/05/27 01:59:37;;;;;;;4.30;2.00;;;9.60;83.40;;;;;;5014671;28;20034;-71
2021/05/27 02:02:03;;;;;;;2.72;2.13;;;9.60;83.40;;;;;;5033147;28;20115;-71
2021/05/27 02:04:29;;;;;;;2.20;2.00;;;9.60;83.30;;;;;;5031747;28;20037;-71
2021/05/27 02:06:54;;;;;;;5.20;2.33;;;9.60;83.20;;;;;;5033162;28;20542;-71
2021/05/27 02:09:20;;;;;;;3.15;2.40;;;9.60;83.30;;;;;;5015381;28;20334;-71
2021/05/27 02:11:47;;;;;;;3.15;2.20;;;9.60;83.30;;;;;;5032399;28;20405;-71
2021/05/27 02:14:15;;;;;;;2.83;2.35;;;9.60;83.20;;;;;;5032029;28;20051;-71
2021/05/27 02:16:42;;;;;;;4.20;2.30;;;9.50;83.10;;;;;;5024648;28;20018;-71
2021/05/27 02:19:08;;;;;;;3.05;2.72;;;9.60;83.20;;;;;;5022952;28;20029;-71
2021/05/27 02:21:35;;;;;;;3.72;2.30;;;9.50;83.10;;;;;;5019889;28;20122;-71
2021/05/27 02:24:02;;;;;;;4.93;2.45;;;9.50;83.00;;;;;;5031675;28;20453;-71
2021/05/27 02:26:28;;;;;;;3.22;2.58;;;9.50;83.00;;;;;;5033305;28;20029;-71
2021/05/27 02:28:54;;;;;;;3.60;2.60;;;9.50;82.90;;;;;;5032842;28;20311;-72
2021/05/27 02:31:21;;;;;;;3.10;2.78;;;9.40;82.90;;;;;;5014429;28;20026;-71
2021/05/27 02:33:48;;;;;;;4.70;2.80;;;9.40;82.90;;;;;;5032574;28;20051;-71
2021/05/27 02:36:14;;;;;;;3.92;3.15;;;9.40;83.00;;;;;;5014085;28;20021;-72
2021/05/27 02:38:40;;;;;;;4.05;3.10;;;9.40;82.90;;;;;;5015050;28;20048;-71
2021/05/27 02:41:06;;;;;;;4.43;3.20;;;9.30;83.10;;;;;;5014437;28;20509;-71
2021/05/27 02:43:33;;;;;;;6.78;3.30;;;9.30;83.00;;;;;;5032741;28;20050;-71
2021/05/27 02:46:02;;;;;;;3.72;3.15;;;9.20;82.90;;;;;;5013256;28;20218;-71
2021/05/27 02:48:32;;;;;;;4.65;3.47;;;9.20;83.10;;;;;;5030079;28;20025;-71
2021/05/27 02:50:58;;;;;;;4.45;3.40;;;9.20;83.30;;;;;;5020857;28;20044;-71
2021/05/27 02:53:24;;;;;;;5.80;3.10;;;9.20;83.20;;;;;;5012916;28;20395;-70
2021/05/27 02:55:51;;;;;;;3.45;3.15;;;9.10;83.20;;;;;;5010838;28;20021;-72
2021/05/27 02:58:17;;;;;;;3.38;2.95;;;9.10;83.20;;;;;;5013565;28;20117;-72
2021/05/27 03:00:42;;;;;;;5.07;3.15;;;9.10;83.30;;;;;;5014589;28;20485;-73
2021/05/27 03:03:08;;;;;;;3.53;3.22;;;9.10;83.30;;;;;;5014880;28;20036;-71
2021/05/27 03:05:33;;;;;;;3.58;3.17;;;9.10;83.30;;;;;;5031391;28;20481;-72
2021/05/27 03:07:59;;;;;;;3.53;3.22;;;9.00;83.20;;;;;;5014618;28;20069;-73
2021/05/27 03:10:25;;;;;;;4.72;3.17;;;9.00;83.20;;;;;;5032188;28;20029;-74
2021/05/27 03:12:51;;;;;;;4.70;3.30;;;9.00;83.30;;;;;;5030551;28;20513;-74
2021/05/27 03:15:17;;;;;;;4.05;3.20;;;8.90;83.40;;;;;;5005930;28;20029;-72
2021/05/27 03:17:43;;;;;;;6.47;3.28;;;8.90;83.50;;;;;;5025162;28;20036;-74
2021/05/27 03:20:10;;;;;;;6.28;3.00;;;8.90;83.50;;;;;;5004793;28;20038;-74
2021/05/27 03:22:35;;;;;;;3.40;3.10;;;8.90;83.60;;;;;;5023613;28;20032;-70
2021/05/27 03:25:01;;;;;;;3.50;2.90;;;8.80;83.60;;;;;;5013463;28;20071;-71
2021/05/27 03:27:26;;;;;;;4.45;3.28;;;8.80;83.70;;;;;;5031977;28;20025;-71
2021/05/27 03:29:52;;;;;;;3.88;3.28;;;8.80;83.60;;;;;;5032076;28;20022;-72
2021/05/27 03:32:18;;;;;;;5.53;2.88;;;8.80;83.50;;;;;;5032111;28;20018;-71
2021/05/27 03:34:44;;;;;;;3.30;3.00;;;8.80;83.50;;;;;;5030651;28;20427;-72
2021/05/27 03:37:09;;;;;;;4.05;2.90;;;8.70;83.50;;;;;;5031913;28;20025;-72
2021/05/27 03:39:35;;;;;;;3.47;2.67;;;8.70;83.60;;;;;;5031789;28;20075;-72
2021/05/27 03:42:00;;;;;;;3.40;2.53;;;8.70;84.20;;;;;;5014097;28;20346;-72
2021/05/27 03:44:26;;;;;;;5.05;2.35;;;8.60;83.60;;;;;;5012912;28;20466;-73
2021/05/27 03:46:51;;;;;;;4.70;2.70;;;8.60;83.70;;;;;;5031729;28;20051;-72
2021/05/27 03:49:17;;;;;;;3.38;2.67;;;8.60;83.80;;;;;;5013658;28;20014;-71
2021/05/27 03:51:43;;;;;;;2.92;2.67;;;8.60;83.60;;;;;;5031596;28;20079;-73
2021/05/27 03:54:09;;;;;;;2.92;2.60;;;8.60;84.10;;;;;;5012970;28;20505;-73
2021/05/27 03:56:35;;;;;;;2.33;2.17;;;8.50;83.60;;;;;;5013736;28;20022;-72
2021/05/27 04:01:45;;;;;;;3.47;2.83;;;8.50;83.60;;;;;;5031766;28;20064;-72
2021/05/27 04:07:16;;;;;;;5.05;2.75;;;8.40;83.90;;;;;;5030753;28;20040;-73
2021/05/27 04:09:42;;;;;;;3.70;2.47;;;8.50;84.00;;;;;;5031455;28;20079;-71
2021/05/27 04:17:41;;;;;;;3.00;2.70;;;8.50;84.30;;;;;;5011028;28;20104;-74
2021/05/27 04:20:08;;;;;;;4.30;2.45;;;8.50;84.10;;;;;;5011245;28;20037;-72
2021/05/27 04:22:33;;;;;;;6.70;2.30;;;8.60;84.40;;;;;;5030443;28;20075;-72
2021/05/27 04:24:59;;;;;;;4.13;2.70;;;8.60;84.40;;;;;;5012001;28;20022;-74
2021/05/27 04:27:24;;;;;;;6.15;2.63;;;8.60;84.30;;;;;;5021382;28;20497;-71
2021/05/27 04:29:53;;;;;;;3.53;2.08;;;8.60;84.30;;;;;;5012770;28;20029;-72
2021/05/27 04:35:04;;;;;;;3.90;2.13;;;8.70;84.40;;;;;;5010320;28;20081;-73
2021/05/27 04:37:29;;;;;;;2.95;2.50;;;8.70;84.50;;;;;;5020505;28;20025;-72
2021/05/27 04:39:55;;;;;;;3.00;2.15;;;8.80;84.50;;;;;;5011154;28;20116;-71
2021/05/27 04:42:20;;;;;;;2.33;2.17;;;8.80;84.60;;;;;;5021865;28;20119;-72
2021/05/27 04:44:46;;;;;;;3.53;2.50;;;8.80;84.60;;;;;;4992002;28;20025;-72
2021/05/27 04:47:11;;;;;;;2.40;2.20;;;8.90;84.40;;;;;;5026382;28;20030;-71
2021/05/27 04:49:37;;;;;;;3.20;2.13;;;8.90;84.30;;;;;;5030458;28;20033;-72
2021/05/27 04:52:03;;;;;;;3.78;2.30;;;8.90;84.40;;;;;;5030794;28;20071;-71
2021/05/27 04:54:28;;;;;;;6.47;2.42;;;8.90;84.40;;;;;;5030335;28;20588;-72
2021/05/27 04:56:54;;;;;;;2.53;2.33;;;9.00;84.40;;;;;;5029978;28;20014;-71
2021/05/27 04:59:20;;;;;;;3.03;2.22;;;9.00;84.40;;;;;;5001158;28;20034;-71
2021/05/27 05:01:45;;;;;;;2.35;2.15;;;9.00;84.50;;;;;;5020386;28;20022;-71
2021/05/27 05:04:11;;;;;;;3.17;2.40;;;9.00;84.60;;;;;;5029358;28;20029;-71
2021/05/27 05:06:36;;;;;;;4.70;2.58;;;9.00;84.40;;;;;;5030292;28;20179;-72
2021/05/27 05:09:03;;;;;;;2.95;2.33;;;9.10;84.40;;;;;;5029964;28;20060;-71
2021/05/27 05:11:28;;;;;;;4.57;2.60;;;9.00;84.20;;;;;;5019217;28;20025;-72
2021/05/27 05:13:54;;;;;;;3.40;2.28;;;9.00;84.20;;;;;;4998267;28;20306;-72
2021/05/27 05:16:20;;;;;;;4.10;2.45;;;9.00;84.20;;;;;;5020046;28;20017;-71
2021/05/27 05:18:45;;;;;;;9.43;2.83;;;9.00;84.10;;;;;;5030419;28;20021;-72
2021/05/27 05:21:11;;;;;;;3.13;2.20;;;9.00;84.00;;;;;;5011360;28;20422;-72
2021/05/27 05:23:36;;;;;;;7.60;3.78;;;9.00;84.10;;;;;;5030245;28;20122;-70
2021/05/27 05:26:02;;;;;;;5.00;2.10;;;9.00;84.00;;;;;;5026184;28;20485;-72
2021/05/27 05:28:28;;;;;;;3.85;2.60;;;9.00;84.00;;;;;;4996407;28;20372;-70
2021/05/27 05:30:53;;;;;;;3.90;2.60;;;9.10;84.10;;;;;;5013217;28;20107;-71
2021/05/27 05:33:20;;;;;;;4.80;2.55;;;9.00;84.00;;;;;;5008802;28;20026;-71
2021/05/27 05:35:46;;;;;;;4.72;2.33;;;9.10;84.00;;;;;;5005868;28;20482;-74
2021/05/27 05:38:12;;;;;;;2.67;2.17;;;9.10;84.00;;;;;;5025931;28;20108;-71
2021/05/27 05:40:37;;;;;;;7.03;2.47;;;9.10;84.00;;;;;;5021513;28;20025;-73
2021/05/27 05:43:03;;;;;;;2.78;2.22;;;9.10;84.00;;;;;;5022046;28;20026;-71
2021/05/27 05:45:29;;;;;;;3.22;2.55;;;9.20;83.90;;;;;;5026431;28;20513;-72
2021/05/27 05:47:54;;;;;;;4.40;2.53;;;9.20;83.80;;;;;;5029619;28;20030;-70
2021/05/27 05:53:09;;;;;;;5.43;2.28;;;9.30;83.50;;;;;;5030375;28;20128;-69
2021/05/27 05:55:36;;;;;;;6.63;2.28;;;9.50;83.50;;;;;;5029016;28;20018;-70
2021/05/27 05:58:02;;;;;;;3.47;2.35;;;9.50;83.40;;;;;;5010092;28;20025;-70
2021/05/27 06:00:29;;;;;;;3.17;2.55;;;9.60;83.10;;;;;;5030061;28;20037;-72
2021/05/27 06:02:54;;;;;;;3.20;2.22;;;9.60;83.00;;;;;;5030392;28;20026;-71
2021/05/27 06:05:20;;;;;;;3.40;2.05;;;9.70;83.00;;;;;;5027853;28;20397;-72
2021/05/27 06:07:46;;;;;;;5.50;2.20;;;9.70;83.00;;;;;;5029248;28;20033;-70
2021/05/27 06:10:11;;;;;;;4.85;2.10;;;9.70;82.80;;;;;;5029732;28;20029;-70
2021/05/27 06:12:39;;;;;;;7.28;2.25;;;9.80;82.70;;;;;;5020741;28;20494;-69
2021/05/27 06:15:06;;;;;;;4.60;2.45;;;9.80;82.60;;;;;;5015262;28;20014;-72
2021/05/27 06:17:31;;;;;;;4.15;2.20;;;9.80;82.60;;;;;;5020618;28;20033;-70
2021/05/27 06:19:57;;;;;;;4.43;1.88;;;9.80;82.50;;;;;;5010334;28;20033;-71
2021/05/27 06:22:22;;;;;;;6.65;3.00;;;9.80;82.50;;;;;;5007922;28;20033;-72
2021/05/27 06:24:48;;;;;;;4.68;2.20;;;9.90;82.40;;;;;;5029470;28;20030;-70
2021/05/27 06:27:13;;;;;;;6.88;2.15;;;10.00;82.30;;;;;;5011783;28;20091;-70
2021/05/27 06:29:39;;;;;;;3.63;2.13;;;10.10;82.80;;;;;;5019736;28;20025;-70
2021/05/27 06:32:05;;;;;;;2.35;1.75;;;10.10;82.20;;;;;;5014224;28;20529;-69
2021/05/27 06:34:30;;;;;;;3.13;1.70;;;10.20;82.30;;;;;;5025783;28;20057;-70
2021/05/27 06:36:56;;;;;;;5.22;1.75;;;10.20;82.10;;;;;;5020317;28;20108;-70
2021/05/27 06:39:21;;;;;;;2.40;1.98;;;10.20;82.00;;;;;;5022080;28;20026;-70
2021/05/27 06:41:47;;;;;;;3.80;1.92;;;10.20;81.80;;;;;;5013493;28;20033;-73
2021/05/27 06:44:13;;;;;;;3.38;2.20;;;10.30;81.70;;;;;;5028918;28;20025;-69
2021/05/27 06:46:39;;;;;;;3.95;1.77;;;10.50;81.30;;;;;;5033120;28;20029;-69
2021/05/27 06:49:05;;;;;;;4.88;1.85;;;10.60;81.20;;;;;;5033235;28;20485;-69
2021/05/27 06:51:31;;;;;;;2.63;1.67;;;10.60;81.00;;;;;;5032418;28;20029;-69
2021/05/27 06:53:57;;;;;;;1.95;1.40;;;10.80;80.70;;;;;;5032087;28;20033;-70
2021/05/27 06:56:22;;;;;;;2.45;1.73;;;10.80;80.80;;;;;;5032547;28;20191;-70
2021/05/27 06:58:48;;;;;;;2.67;1.45;;;10.90;80.70;;;;;;5026426;28;20148;-70
2021/05/27 07:01:14;;;;;;;2.65;1.42;;;11.00;80.40;;;;;;5014219;28;20032;-71
2021/05/27 07:03:39;;;;;;;2.03;1.52;;;11.10;80.10;;;;;;5015057;28;20401;-69
2021/05/27 07:06:06;;;;;;;4.65;1.80;;;11.00;79.90;;;;;;5013518;28;20362;-69
2021/05/27 07:08:32;;;;;;;4.68;1.77;;;11.10;80.00;;;;;;5032491;28;20032;-71
2021/05/27 07:10:58;;;;;;;3.63;1.33;;;11.10;79.80;;;;;;5014890;28;20075;-71
2021/05/27 07:13:24;;;;;;;1.60;1.48;;;11.10;79.50;;;;;;5031503;28;20029;-72
2021/05/27 07:15:49;;;;;;;2.90;1.27;;;11.20;79.40;;;;;;5026298;28;20103;-72
2021/05/27 07:18:15;;;;;;;1.60;1.27;;;11.30;79.10;;;;;;5020705;28;20183;-72
2021/05/27 07:20:42;;;;;;;2.78;1.33;;;11.50;78.90;;;;;;5021917;28;20033;-73
2021/05/27 07:23:08;;;;;;;2.65;1.20;;;11.50;78.60;;;;;;5001707;28;20091;-72
2021/05/27 07:25:34;;;;;;;2.55;1.05;;;11.60;78.40;;;;;;5031472;28;20061;-71
2021/05/27 07:27:59;;;;;;;4.78;1.42;;;11.50;78.30;;;;;;5031675;28;20475;-72
2021/05/27 07:30:27;;;;;;;3.50;1.33;;;11.50;78.20;;;;;;5030383;28;20040;-71
2021/05/27 07:32:54;;;;;;;1.33;1.00;;;11.50;78.00;;;;;;5031364;28;20748;-73
2021/05/27 07:35:20;;;;;;;2.40;1.00;;;11.70;77.40;;;;;;5004926;28;20033;-73
2021/05/27 07:37:45;;;;;;;2.88;1.42;;;12.00;77.00;;;;;;5029952;28;20029;-71
2021/05/27 07:40:11;;;;;;;2.10;1.08;;;12.10;76.70;;;;;;5008426;28;20186;-72
2021/05/27 07:42:37;;;;;;;1.88;1.00;;;12.10;76.30;;;;;;5012370;28;20018;-72
2021/05/27 07:45:05;;;;;;;1.13;1.00;;;12.30;75.90;;;;;;5006716;28;20065;-71
2021/05/27 07:47:32;;;;;;;2.60;0.90;;;12.60;75.50;;;;;;5023428;28;20029;-71
2021/05/27 07:50:00;;;;;;;0.82;0.82;;;12.80;75.20;;;;;;5031263;28;20057;-72
2021/05/27 07:52:26;;;;;;;1.00;1.00;;;13.20;74.40;;;;;;5031231;28;20425;-72
2021/05/27 07:54:53;;;;;;;1.20;0.93;;;13.10;74.30;;;;;;5007463;28;20439;-71
2021/05/27 07:57:19;;;;;;;0.98;0.88;;;13.60;73.30;;;;;;5017593;28;20028;-71
2021/05/27 07:59:44;;;;;;;2.03;1.02;;;14.10;72.60;;;;;;5020918;28;20029;-70
2021/05/27 08:02:10;;;;;;;2.63;1.00;;;14.10;71.90;;;;;;5026047;28;20104;-71
2021/05/27 08:04:36;;;;;;;2.05;0.90;;;14.40;71.00;;;;;;5027777;28;20025;-71
2021/05/27 08:07:02;;;;;;;2.08;1.15;;;14.90;70.50;;;;;;5016763;28;20046;-73
2021/05/27 08:09:28;;;;;;;1.77;1.05;;;14.90;69.50;;;;;;5030048;28;20029;-72
2021/05/27 08:11:53;;;;;;;3.47;0.90;;;15.10;68.80;;;;;;5021142;28;20100;-72
2021/05/27 08:14:19;;;;;;;3.45;1.08;;;15.30;67.60;;;;;;5030470;28;20083;-72
2021/05/27 08:16:46;;;;;;;1.85;0.75;;;15.10;68.30;;;;;;5013148;28;20044;-73
2021/05/27 08:19:12;;;;;;;2.28;0.90;;;14.90;68.60;;;;;;5022604;28;20485;-73
2021/05/27 08:21:38;;;;;;;1.48;1.15;;;14.80;68.50;;;;;;5027528;28;20033;-73
2021/05/27 08:24:04;;;;;;;3.47;1.10;;;15.00;68.10;;;;;;5030200;28;20028;-72
2021/05/27 08:26:29;;;;;;;2.00;1.58;;;15.10;68.40;;;;;;5031055;28;20033;-72
2021/05/27 08:28:55;;;;;;;3.55;1.30;;;14.60;68.00;;;;;;5029254;28;20442;-73
2021/05/27 08:31:21;;;;;;;3.15;1.52;;;14.30;68.90;;;;;;5012266;28;20112;-74
2021/05/27 08:33:49;;;;;;;3.88;1.48;;;14.00;69.40;;;;;;5020857;28;20022;-73
2021/05/27 08:36:16;;;;;;;3.72;1.33;;;13.80;69.70;;;;;;5000858;28;20018;-73
2021/05/27 08:38:42;;;;;;;5.25;1.60;;;13.50;69.80;;;;;;5019286;28;20541;-73
2021/05/27 08:41:09;;;;;;;2.00;1.48;;;13.40;69.80;;;;;;5027182;28;20061;-73
2021/05/27 08:43:35;;;;;;;1.40;1.10;;;13.50;69.80;;;;;;5031183;28;20029;-72
2021/05/27 08:46:05;;;;;;;2.60;0.90;;;13.40;69.80;;;;;;5015244;28;20080;-73
2021/05/27 08:48:31;;;;;;;3.92;0.95;;;13.20;70.30;;;;;;5019556;28;20018;-72
2021/05/27 08:50:59;;;;;;;2.65;1.25;;;13.10;70.40;;;;;;5019606;28;20033;-72
2021/05/27 08:53:25;;;;;;;1.00;0.80;;;13.10;70.50;;;;;;5025836;28;20104;-73
2021/05/27 08:55:51;;;;;;;2.10;1.00;;;13.00;70.40;;;;;;5027161;28;20105;-72
2021/05/27 08:58:17;;;;;;;3.10;0.80;;;12.90;70.30;;;;;;5029032;28;20040;-73
2021/05/27 09:00:43;;;;;;;2.50;0.93;;;12.80;70.30;;;;;;5011999;28;20038;-73
2021/05/27 09:03:10;;;;;;;2.63;1.10;;;12.70;70.30;;;;;;5030510;28;20482;-73
2021/05/27 09:05:38;;;;;;;2.25;0.88;;;12.60;70.50;;;;;;5011646;28;20037;-73
2021/05/27 09:08:08;;;;;;;1.88;0.85;;;12.60;70.50;;;;;;5030142;28;20068;-72
2021/05/27 09:10:48;;;;;;;2.30;1.00;;;12.60;70.70;;;;;;5026734;28;20037;-74
2021/05/27 09:13:19;;;;;;;2.58;1.10;;;12.70;70.90;;;;;;5004537;28;20521;-72
2021/05/27 09:15:50;;;;;;;1.10;1.00;;;12.80;70.80;;;;;;5027094;28;20455;-74
2021/05/27 09:18:30;;;;;;;3.83;1.23;;;13.20;70.30;;;;;;5026146;28;20100;-74
2021/05/27 09:20:55;;;;;;;1.17;0.90;;;14.10;68.90;;;;;;5029686;28;20029;-73
2021/05/27 09:23:21;;;;;;;4.50;0.80;;;14.30;68.40;;;;;;5029713;28;20041;-71
2021/05/27 09:25:53;;;;;;;1.63;1.00;;;14.20;68.40;;;;;;5028913;28;20033;-72
2021/05/27 09:28:29;;;;;;;5.83;0.90;;;14.00;68.40;;;;;;5029464;28;20025;-72
2021/05/27 09:31:00;;;;;;;1.63;0.80;;;13.90;68.90;;;;;;5010986;28;20030;-72
2021/05/27 09:33:41;;;;;;;2.17;0.90;;;13.80;69.10;;;;;;5020303;28;20029;-71
2021/05/27 09:38:37;;;;;;;2.95;1.00;;;13.60;68.90;;;;;;5006474;28;20648;-70
2021/05/27 09:41:16;;;;;;;1.13;1.00;;;13.50;68.70;;;;;;5001187;28;20038;-72
2021/05/27 09:43:45;;;;;;;2.10;0.88;;;13.40;68.70;;;;;;5010174;28;20473;-72
2021/05/27 09:46:10;;;;;;;0.90;0.80;;;13.30;68.70;;;;;;5001939;23;20046;-71
2021/05/27 09:48:36;;;;;;;2.10;1.00;;;13.30;69.00;;;;;;5008025;28;20386;-72
2021/05/27 09:51:03;;;;;;;2.33;1.20;;;13.30;69.10;;;;;;4991475;28;20030;-72
2021/05/27 09:53:32;;;;;;;2.20;1.05;;;13.20;69.00;;;;;;5010699;28;20021;-71
2021/05/27 09:55:59;;;;;;;3.80;0.90;;;13.20;69.10;;;;;;5009169;28;20089;-71
2021/05/27 09:58:25;;;;;;;1.67;0.90;;;13.10;69.30;;;;;;4996601;28;20018;-72
2021/05/27 10:00:52;;;;;;;3.33;1.13;;;13.10;69.30;;;;;;4999049;28;20034;-72
2021/05/27 10:03:39;;;;;;;2.47;1.20;;;13.10;69.30;;;;;;5007656;28;20025;-72
2021/05/27 10:06:10;;;;;;;1.27;1.05;;;13.00;68.90;;;;;;5008305;28;20029;-72
2021/05/27 10:08:48;;;;;;;1.70;0.90;;;13.00;68.90;;;;;;5009509;28;20030;-72
2021/05/27 10:11:15;;;;;;;1.50;1.00;;;12.90;69.00;;;;;;5007315;28;20022;-73
2021/05/27 10:13:41;;;;;;;2.85;1.23;;;12.90;69.40;;;;;;5014440;28;20268;-72
2021/05/27 10:16:12;;;;;;;3.50;1.00;;;12.80;69.50;;;;;;5015976;28;20021;-72
2021/05/27 10:18:40;;;;;;;2.95;1.00;;;12.90;69.50;;;;;;4996420;28;20121;-72
2021/05/27 10:21:05;;;;;;;1.67;1.00;;;12.90;69.60;;;;;;5008230;28;20703;-72
2021/05/27 10:23:31;;;;;;;5.53;1.20;;;12.90;69.50;;;;;;4995219;28;20125;-73
2021/05/27 10:25:57;;;;;;;2.15;1.15;;;12.90;69.50;;;;;;5007100;28;20031;-71
2021/05/27 10:28:24;;;;;;;2.42;1.10;;;13.00;69.50;;;;;;5020306;28;20033;-72
2021/05/27 10:30:50;;;;;;;3.05;1.13;;;13.00;69.40;;;;;;5011309;28;20049;-72
2021/05/27 10:33:19;;;;;;;2.00;0.85;;;13.10;69.40;;;;;;4996857;28;20048;-72
2021/05/27 10:35:48;;;;;;;2.00;1.05;;;13.20;69.30;;;;;;5009233;28;20374;-72
2021/05/27 10:38:14;;;;;;;2.00;1.10;;;13.30;69.60;;;;;;5010616;28;20024;-71
2021/05/27 10:40:42;;;;;;;3.78;1.08;;;13.40;69.50;;;;;;4995064;28;20037;-71
2021/05/27 10:43:11;;;;;;;4.78;1.27;;;13.40;69.10;;;;;;5012308;28;20052;-71
2021/05/27 10:46:05;;;;;;;4.30;1.20;;;13.30;68.90;;;;;;5001213;28;20058;-72
2021/05/27 10:48:46;;;;;;;1.42;1.20;;;13.20;69.10;;;;;;5012558;28;20033;-71
2021/05/27 10:53:42;;;;;;;1.75;1.30;;;13.10;69.40;;;;;;5008635;28;20433;-70
2021/05/27 10:56:22;;;;;;;4.40;1.55;;;13.00;69.50;;;;;;5004619;28;20018;-72
2021/05/27 10:58:53;;;;;;;2.85;1.30;;;13.00;69.60;;;;;;5010270;28;20018;-72
2021/05/27 11:01:41;;;;;;;1.73;1.40;;;13.20;69.80;;;;;;5010309;28;20026;-72
2021/05/27 11:04:27;;;;;;;1.90;1.60;;;13.50;69.60;;;;;;5012176;28;20356;-72
2021/05/27 11:07:13;;;;;;;1.60;1.50;;;13.80;69.60;;;;;;5011506;28;20105;-72
2021/05/27 11:09:38;;;;;;;3.92;1.70;;;13.90;69.50;;;;;;5013357;28;20029;-72
2021/05/27 11:12:18;;;;;;;2.67;1.45;;;13.90;69.50;;;;;;5010263;28;20109;-72
2021/05/27 11:14:47;;;;;;;3.47;1.48;;;13.90;69.80;;;;;;5011856;28;20018;-72
2021/05/27 11:17:17;;;;;;;3.03;2.10;;;13.90;69.80;;;;;;5010762;28;20108;-70
2021/05/27 11:19:49;;;;;;;2.55;1.83;;;13.90;70.10;;;;;;5013220;28;20033;-72
2021/05/27 11:22:37;;;;;;;1.60;1.50;;;13.80;70.20;;;;;;5010120;28;20058;-73
2021/05/27 11:25:10;;;;;;;3.60;1.85;;;13.70;70.30;;;;;;5011711;28;20280;-73
2021/05/27 11:27:49;;;;;;;3.40;1.98;;;13.60;70.00;;;;;;5011345;28;20030;-72
2021/05/27 11:30:44;;;;;;;3.85;1.98;;;13.50;70.10;;;;;;5012015;28;20037;-72
2021/05/27 11:33:15;;;;;;;3.13;1.73;;;13.50;70.60;;;;;;5012049;28;20030;-73
2021/05/27 11:35:47;;;;;;;5.60;2.00;;;13.50;70.30;;;;;;5011810;28;20022;-74
2021/05/27 11:38:15;;;;;;;3.15;1.80;;;13.60;70.60;;;;;;5010187;28;20022;-74
2021/05/27 11:40:46;;;;;;;2.47;1.60;;;13.70;70.80;;;;;;5031496;28;20106;-73
2021/05/27 11:43:13;;;;;;;3.25;1.58;;;13.80;70.40;;;;;;5010821;28;20042;-73
2021/05/27 11:45:42;;;;;;;4.55;1.50;;;14.00;70.20;;;;;;5015406;28;20033;-74
2021/05/27 11:48:33;;;;;;;2.22;1.67;;;14.20;70.40;;;;;;5014489;28;20168;-73
2021/05/27 11:51:02;;;;;;;2.63;1.70;;;14.40;70.30;;;;;;5009092;28;20029;-74
2021/05/27 11:53:47;;;;;;;3.47;1.60;;;14.60;70.20;;;;;;5028419;28;20037;-73
2021/05/27 11:56:14;;;;;;;1.85;1.30;;;14.80;69.80;;;;;;5029323;28;20025;-73
2021/05/27 11:58:42;;;;;;;1.52;1.15;;;15.00;70.00;;;;;;5032553;28;20025;-73
2021/05/27 12:01:18;;;;;;;1.65;1.55;;;15.20;70.00;;;;;;5027835;28;20489;-73
2021/05/27 12:04:04;;;;;;;1.42;1.15;;;15.30;69.40;;;;;;5030145;28;20017;-73
2021/05/27 12:06:56;;;;;;;1.48;1.13;;;15.30;68.40;;;;;;5031292;28;20143;-73
2021/05/27 12:09:26;;;;;;;1.95;1.20;;;15.30;68.10;;;;;;5027364;28;20033;-71
2021/05/27 12:11:51;;;;;;;3.33;1.05;;;15.40;67.80;;;;;;5031102;28;20044;-73
2021/05/27 12:14:17;;;;;;;1.20;1.10;;;15.60;67.90;;;;;;5030229;28;20029;-70
2021/05/27 12:16:43;;;;;;;1.25;1.08;;;15.80;67.60;;;;;;5030786;28;20389;-71
2021/05/27 12:19:12;;;;;;;2.25;0.90;;;16.00;67.40;;;;;;5014189;28;20418;-73
2021/05/27 12:21:50;;;;;;;3.38;1.30;;;16.20;66.60;;;;;;5026119;28;20028;-73
2021/05/27 12:24:30;;;;;;;3.03;0.80;;;16.40;66.30;;;;;;5014867;28;20068;-72
2021/05/27 12:26:58;;;;;;;1.65;1.02;;;16.60;65.60;;;;;;5001199;28;20025;-72
2021/05/27 12:29:24;;;;;;;2.30;1.17;;;16.60;65.50;;;;;;5029707;28;20493;-72
2021/05/27 12:31:50;;;;;;;3.58;1.10;;;16.50;64.90;;;;;;5026271;28;20060;-71
2021/05/27 12:34:20;;;;;;;4.10;1.30;;;16.30;64.60;;;;;;5025238;28;20018;-73
2021/05/27 12:36:57;;;;;;;3.22;1.50;;;16.20;64.50;;;;;;5026119;28;20172;-74
2021/05/27 12:39:31;;;;;;;4.78;1.42;;;15.90;64.60;;;;;;5027426;28;20526;-74
2021/05/27 12:41:58;;;;;;;3.85;1.30;;;15.80;64.70;;;;;;5029515;28;20053;-74
2021/05/27 12:44:53;;;;;;;4.10;1.15;;;15.70;64.80;;;;;;5006705;28;20445;-73
2021/05/27 12:47:20;;;;;;;5.28;1.63;;;15.60;64.90;;;;;;5008465;28;20037;-73
2021/05/27 12:49:48;;;;;;;3.00;1.00;;;15.50;65.00;;;;;;5028822;28;20112;-74
2021/05/27 12:52:41;;;;;;;3.95;1.13;;;15.50;65.10;;;;;;5002762;28;20166;-71
2021/05/27 12:55:10;;;;;;;2.78;0.90;;;15.50;65.00;;;;;;5028297;28;20421;-73
2021/05/27 12:57:52;;;;;;;1.58;0.90;;;15.60;65.00;;;;;;5030025;28;20021;-73
2021/05/27 13:00:19;;;;;;;2.92;1.27;;;15.50;64.60;;;;;;5029094;28;20481;-73
2021/05/27 13:02:44;;;;;;;1.83;0.90;;;15.50;64.80;;;;;;5026255;28;20189;-73
2021/05/27 13:05:20;;;;;;;2.38;0.90;;;15.30;64.40;;;;;;5028475;28;20536;-71
2021/05/27 13:07:58;;;;;;;1.77;0.88;;;15.20;64.70;;;;;;5023108;28;20112;-71
2021/05/27 13:10:31;;;;;;;1.73;1.10;;;15.10;64.90;;;;;;5026194;28;20361;-73
2021/05/27 13:12:57;;;;;;;2.47;0.90;;;15.10;65.00;;;;;;5012205;28;20032;-73
2021/05/27 13:15:23;;;;;;;1.23;1.10;;;15.10;64.90;;;;;;5023652;28;20025;-73
2021/05/27 13:18:10;;;;;;;2.10;0.90;;;15.10;64.90;;;;;;5028378;28;20112;-73
2021/05/27 13:21:01;;;;;;;2.05;1.15;;;15.10;65.40;;;;;;5012001;28;20107;-71
2021/05/27 13:23:32;;;;;;;1.05;0.88;;;15.10;65.10;;;;;;5011703;28;20060;-73